Time;durP1;ratioP1;P1;durP2;ratioP2;P2;SDS_P1;SDS_P2;PMS_P1;PMS_P2;Temp;Humidity;BMP_temperature;BMP_pressure;BME280_temperature;BME280_humidity;BME280_pressure;Samples;Min_cycle;Max_cycle;Signal;HPM_P1;HPM_P2
2021/03/21 00:00:32;;;;;;;18.83;6.47;;;;;;;;;;4913692;28;20045;-57
2021/03/21 00:03:03;;;;;;;21.35;6.65;;;;;;;;;;4944836;28;20042;-56
2021/03/21 00:05:30;;;;;;;25.65;6.97;;;;;;;;;;4948342;28;20382;-57
2021/03/21 00:08:00;;;;;;;23.30;7.07;;;;;;;;;;4947355;28;20386;-58
2021/03/21 00:10:28;;;;;;;25.15;7.45;;;;;;;;;;4948001;28;20046;-56
2021/03/21 00:12:59;;;;;;;36.90;7.18;;;;;;;;;;4942220;28;20114;-57
2021/03/21 00:15:27;;;;;;;18.10;5.95;;;;;;;;;;4947262;28;20038;-57
2021/03/21 00:17:56;;;;;;;20.95;7.18;;;;;;;;;;4948160;28;20023;-58
2021/03/21 00:20:25;;;;;;;30.50;7.45;;;;;;;;;;4945755;28;20033;-57
2021/03/21 00:22:56;;;;;;;22.90;6.38;;;;;;;;;;4945709;28;20089;-57
2021/03/21 00:25:22;;;;;;;25.83;7.97;;;;;;;;;;4929012;28;20037;-56
2021/03/21 00:27:48;;;;;;;22.80;6.68;;;;;;;;;;4945633;28;20071;-58
2021/03/21 00:30:18;;;;;;;25.98;7.63;;;;;;;;;;4948493;28;20041;-57
2021/03/21 00:32:47;;;;;;;24.25;7.32;;;;;;;;;;4945536;28;20039;-56
2021/03/21 00:35:13;;;;;;;41.45;8.95;;;;;;;;;;4945365;28;20101;-57
2021/03/21 00:37:41;;;;;;;32.38;8.13;;;;;;;;;;4946141;28;20236;-57
2021/03/21 00:40:08;;;;;;;43.90;9.88;;;;;;;;;;4931076;28;20085;-55
2021/03/21 00:42:34;;;;;;;45.78;10.55;;;;;;;;;;4930469;28;20042;-58
2021/03/21 00:45:02;;;;;;;38.45;10.52;;;;;;;;;;4929373;28;20031;-57
2021/03/21 00:47:30;;;;;;;49.67;10.70;;;;;;;;;;4945913;28;20031;-57
2021/03/21 00:49:55;;;;;;;43.40;10.32;;;;;;;;;;4914496;28;20070;-57
2021/03/21 00:52:21;;;;;;;40.40;10.68;;;;;;;;;;4927078;28;20178;-57
2021/03/21 00:54:46;;;;;;;36.13;10.13;;;;;;;;;;4930388;28;20034;-57
2021/03/21 00:57:14;;;;;;;45.63;10.65;;;;;;;;;;4918741;28;20031;-56
2021/03/21 00:59:40;;;;;;;32.38;9.35;;;;;;;;;;4932297;28;20033;-56
2021/03/21 01:02:11;;;;;;;38.42;9.05;;;;;;;;;;4950100;28;20046;-57
2021/03/21 01:04:44;;;;;;;36.03;9.43;;;;;;;;;;4949964;28;20137;-57
2021/03/21 01:07:15;;;;;;;46.33;9.00;;;;;;;;;;4947974;28;20035;-56
2021/03/21 01:09:40;;;;;;;44.55;9.07;;;;;;;;;;4949670;28;20081;-56
2021/03/21 01:12:13;;;;;;;36.78;8.00;;;;;;;;;;4914488;28;20045;-57
2021/03/21 01:14:41;;;;;;;39.20;8.50;;;;;;;;;;4928705;28;20049;-57
2021/03/21 01:17:08;;;;;;;24.52;7.60;;;;;;;;;;4931365;28;20022;-56
2021/03/21 01:19:34;;;;;;;39.05;8.13;;;;;;;;;;4927887;28;20039;-57
2021/03/21 01:21:59;;;;;;;28.27;7.07;;;;;;;;;;4948342;28;20667;-58
2021/03/21 01:24:25;;;;;;;22.85;6.07;;;;;;;;;;4952250;28;20046;-58
2021/03/21 01:26:52;;;;;;;19.90;5.38;;;;;;;;;;4953980;28;20085;-57
2021/03/21 01:29:17;;;;;;;15.35;5.07;;;;;;;;;;4951100;28;20047;-57
2021/03/21 01:31:47;;;;;;;22.85;5.38;;;;;;;;;;4916780;28;20038;-58
2021/03/21 01:34:15;;;;;;;19.40;5.32;;;;;;;;;;4951117;28;20041;-56
2021/03/21 01:36:44;;;;;;;10.23;4.05;;;;;;;;;;4932430;28;20546;-56
2021/03/21 01:39:16;;;;;;;14.43;4.18;;;;;;;;;;4946870;28;20046;-56
2021/03/21 01:41:52;;;;;;;25.23;4.85;;;;;;;;;;4932166;28;20034;-57
2021/03/21 01:44:20;;;;;;;24.30;5.95;;;;;;;;;;4949507;28;22438;-57
2021/03/21 01:47:01;;;;;;;15.38;5.05;;;;;;;;;;4949396;28;20037;-57
2021/03/21 01:49:41;;;;;;;22.50;5.05;;;;;;;;;;4942679;28;20038;-57
2021/03/21 01:52:07;;;;;;;28.50;5.60;;;;;;;;;;4946595;28;20098;-58
2021/03/21 01:54:35;;;;;;;24.73;5.10;;;;;;;;;;4946280;28;20034;-58
2021/03/21 01:57:01;;;;;;;21.88;4.97;;;;;;;;;;4947994;28;20027;-58
2021/03/21 01:59:28;;;;;;;30.10;6.47;;;;;;;;;;4932223;28;20482;-56
2021/03/21 02:01:55;;;;;;;15.98;4.95;;;;;;;;;;4948730;28;20043;-56
2021/03/21 02:04:21;;;;;;;19.25;5.55;;;;;;;;;;4950193;28;20987;-56
2021/03/21 02:07:16;;;;;;;22.80;4.78;;;;;;;;;;4913945;28;20039;-56
2021/03/21 02:10:15;;;;;;;18.38;5.30;;;;;;;;;;4949871;28;20045;-56
2021/03/21 02:12:45;;;;;;;20.20;4.95;;;;;;;;;;4927086;28;20090;-57
2021/03/21 02:15:10;;;;;;;15.25;4.25;;;;;;;;;;4948198;28;20042;-56
2021/03/21 02:17:39;;;;;;;15.80;4.65;;;;;;;;;;4950070;28;20368;-58
2021/03/21 02:20:23;;;;;;;19.05;4.72;;;;;;;;;;4932061;28;20039;-57
2021/03/21 02:23:01;;;;;;;21.98;4.55;;;;;;;;;;4949100;28;20097;-58
2021/03/21 02:25:36;;;;;;;19.55;4.68;;;;;;;;;;4949373;28;20050;-58
2021/03/21 02:28:04;;;;;;;16.85;3.83;;;;;;;;;;4949864;28;20471;-56
2021/03/21 02:30:38;;;;;;;23.88;4.55;;;;;;;;;;4947045;28;20022;-57
2021/03/21 02:33:32;;;;;;;16.95;4.03;;;;;;;;;;4946913;28;20065;-57
2021/03/21 02:36:09;;;;;;;10.63;3.42;;;;;;;;;;4946933;28;20051;-57
2021/03/21 02:38:38;;;;;;;12.52;3.38;;;;;;;;;;4948841;28;20034;-57
2021/03/21 02:41:19;;;;;;;23.10;4.55;;;;;;;;;;4948631;28;20026;-57
2021/03/21 02:43:49;;;;;;;14.27;3.75;;;;;;;;;;4948288;28;20046;-57
2021/03/21 02:46:22;;;;;;;24.13;3.90;;;;;;;;;;4929723;28;21006;-56
2021/03/21 02:48:49;;;;;;;13.00;3.05;;;;;;;;;;4946097;28;20042;-56
2021/03/21 02:51:18;;;;;;;12.02;3.80;;;;;;;;;;4943374;28;20022;-55
2021/03/21 02:53:50;;;;;;;21.50;2.63;;;;;;;;;;4947128;28;20039;-55
2021/03/21 02:56:22;;;;;;;23.88;4.25;;;;;;;;;;4930236;28;20525;-56
2021/03/21 02:58:53;;;;;;;25.05;3.40;;;;;;;;;;4929634;28;20043;-57
2021/03/21 03:01:23;;;;;;;14.18;2.83;;;;;;;;;;4948007;28;20113;-58
2021/03/21 03:03:54;;;;;;;27.05;3.20;;;;;;;;;;4929463;28;20136;-56
2021/03/21 03:06:26;;;;;;;11.80;2.78;;;;;;;;;;4943056;28;20074;-55
2021/03/21 03:08:57;;;;;;;13.43;2.55;;;;;;;;;;4947812;28;20054;-58
2021/03/21 03:11:26;;;;;;;18.48;3.10;;;;;;;;;;4945907;28;20113;-59
2021/03/21 03:13:58;;;;;;;16.58;2.38;;;;;;;;;;4949497;28;20042;-58
2021/03/21 03:16:31;;;;;;;17.10;2.38;;;;;;;;;;4947056;28;20031;-57
2021/03/21 03:18:57;;;;;;;11.32;2.65;;;;;;;;;;4931259;28;20050;-57
2021/03/21 03:21:32;;;;;;;27.92;3.08;;;;;;;;;;4929286;28;20027;-57
2021/03/21 03:24:19;;;;;;;22.00;2.47;;;;;;;;;;4948868;28;20045;-56
2021/03/21 03:27:01;;;;;;;21.52;2.55;;;;;;;;;;4946749;28;20123;-59
2021/03/21 03:29:34;;;;;;;15.23;1.95;;;;;;;;;;4949342;28;20027;-58
2021/03/21 03:32:02;;;;;;;13.07;2.08;;;;;;;;;;4947847;28;22105;-58
2021/03/21 03:34:30;;;;;;;17.73;1.95;;;;;;;;;;4924296;28;20053;-58
2021/03/21 03:36:55;;;;;;;32.85;2.33;;;;;;;;;;4948891;28;20045;-59
2021/03/21 03:39:23;;;;;;;37.70;2.72;;;;;;;;;;4946608;28;20023;-57
2021/03/21 03:41:49;;;;;;;30.90;3.28;;;;;;;;;;4947851;28;20039;-57
2021/03/21 03:44:24;;;;;;;23.33;2.78;;;;;;;;;;4946283;28;20053;-56
2021/03/21 03:46:54;;;;;;;51.55;3.25;;;;;;;;;;4926935;28;20561;-59
2021/03/21 03:49:31;;;;;;;34.58;2.65;;;;;;;;;;4930648;28;20134;-59
2021/03/21 03:52:16;;;;;;;28.83;2.53;;;;;;;;;;4947752;28;20499;-60
2021/03/21 03:54:44;;;;;;;17.20;3.92;;;;;;;;;;4946996;28;20041;-58
2021/03/21 03:57:16;;;;;;;39.78;2.38;;;;;;;;;;4945610;28;20027;-57
2021/03/21 03:59:53;;;;;;;29.17;2.25;;;;;;;;;;4946759;28;20081;-59
2021/03/21 04:02:24;;;;;;;11.73;1.50;;;;;;;;;;4948702;28;20085;-58
2021/03/21 04:05:00;;;;;;;17.05;1.75;;;;;;;;;;4929315;28;20034;-58
2021/03/21 04:07:29;;;;;;;19.85;2.00;;;;;;;;;;4947279;28;20153;-58
2021/03/21 04:10:04;;;;;;;10.77;1.88;;;;;;;;;;4947262;28;20035;-57
2021/03/21 04:12:31;;;;;;;33.05;2.58;;;;;;;;;;4947724;28;20023;-58
2021/03/21 04:15:06;;;;;;;20.45;2.13;;;;;;;;;;4947115;28;22052;-58
2021/03/21 04:17:31;;;;;;;;;;;;;;;;;;4946400;28;20070;-57
2021/03/21 04:20:03;;;;;;;6.93;1.23;;;;;;;;;;4945354;28;19922;-58
2021/03/21 04:22:33;;;;;;;24.58;2.60;;;;;;;;;;4944066;28;20097;-57
2021/03/21 04:25:02;;;;;;;15.98;1.30;;;;;;;;;;4947470;28;20101;-58
2021/03/21 04:27:33;;;;;;;17.30;1.75;;;;;;;;;;4928592;28;20062;-59
2021/03/21 04:30:03;;;;;;;4.68;1.52;;;;;;;;;;4930816;28;20031;-58
2021/03/21 04:32:32;;;;;;;14.43;1.50;;;;;;;;;;4945291;28;20022;-58
2021/03/21 04:35:03;;;;;;;15.77;1.95;;;;;;;;;;4948392;28;20926;-59
2021/03/21 04:37:31;;;;;;;10.90;1.58;;;;;;;;;;4947424;28;20034;-59
2021/03/21 04:39:57;;;;;;;19.77;2.03;;;;;;;;;;4928738;28;20559;-57
2021/03/21 04:42:35;;;;;;;15.30;2.08;;;;;;;;;;4945381;28;20039;-58
2021/03/21 04:45:17;;;;;;;17.15;2.22;;;;;;;;;;4947330;28;20089;-58
2021/03/21 04:48:03;;;;;;;15.85;1.92;;;;;;;;;;4947126;28;20475;-58
2021/03/21 04:50:32;;;;;;;10.35;1.55;;;;;;;;;;4927161;28;20031;-58
2021/03/21 04:53:19;;;;;;;22.83;2.20;;;;;;;;;;4931780;28;20105;-58
2021/03/21 04:55:50;;;;;;;26.83;2.75;;;;;;;;;;4926658;28;20050;-56
2021/03/21 04:58:31;;;;;;;17.08;2.65;;;;;;;;;;4930212;28;20565;-56
2021/03/21 05:01:03;;;;;;;19.80;1.95;;;;;;;;;;4927444;28;20501;-57
2021/03/21 05:03:34;;;;;;;17.42;2.08;;;;;;;;;;4943947;28;20504;-60
2021/03/21 05:06:05;;;;;;;24.15;1.90;;;;;;;;;;4931276;28;20069;-59
2021/03/21 05:08:52;;;;;;;22.20;2.35;;;;;;;;;;4947159;28;20725;-60
2021/03/21 05:11:20;;;;;;;18.73;1.88;;;;;;;;;;4945917;28;20041;-57
2021/03/21 05:13:58;;;;;;;9.15;2.25;;;;;;;;;;4947151;28;20026;-58
2021/03/21 05:16:28;;;;;;;25.30;2.45;;;;;;;;;;4927419;28;20031;-57
2021/03/21 05:19:07;;;;;;;12.85;2.45;;;;;;;;;;4929670;28;20023;-58
2021/03/21 05:21:37;;;;;;;15.80;2.15;;;;;;;;;;4929848;28;20034;-59
2021/03/21 05:24:05;;;;;;;18.80;1.83;;;;;;;;;;4946006;28;20039;-61
2021/03/21 05:26:46;;;;;;;24.67;2.15;;;;;;;;;;4945883;28;20035;-60
2021/03/21 05:29:21;;;;;;;38.30;2.75;;;;;;;;;;4944501;28;20026;-59
2021/03/21 05:31:52;;;;;;;29.63;2.50;;;;;;;;;;4943224;28;20035;-59
2021/03/21 05:34:20;;;;;;;26.13;2.67;;;;;;;;;;4942386;28;20058;-60
2021/03/21 05:37:00;;;;;;;38.00;3.53;;;;;;;;;;4945454;28;20031;-59
2021/03/21 05:39:30;;;;;;;25.27;2.13;;;;;;;;;;4944197;28;20586;-59
2021/03/21 05:42:17;;;;;;;29.70;2.05;;;;;;;;;;4948316;28;20034;-58
2021/03/21 05:45:03;;;;;;;35.40;2.92;;;;;;;;;;4950514;28;20540;-60
2021/03/21 05:47:52;;;;;;;20.95;2.50;;;;;;;;;;4931995;28;20039;-61
2021/03/21 05:50:38;;;;;;;21.63;2.63;;;;;;;;;;4948859;28;20039;-59
2021/03/21 05:53:09;;;;;;;28.52;3.28;;;;;;;;;;4947673;28;20038;-58
2021/03/21 05:55:48;;;;;;;30.77;2.55;;;;;;;;;;4946920;28;20027;-59
2021/03/21 05:58:35;;;;;;;20.23;2.50;;;;;;;;;;4928464;28;20070;-59
2021/03/21 06:01:24;;;;;;;24.30;2.90;;;;;;;;;;4946447;28;20035;-62
2021/03/21 06:04:03;;;;;;;35.80;2.78;;;;;;;;;;4946618;28;20061;-58
2021/03/21 06:06:35;;;;;;;27.52;3.55;;;;;;;;;;4946730;28;20037;-61
2021/03/21 06:09:07;;;;;;;20.75;3.10;;;;;;;;;;4946693;28;20117;-59
2021/03/21 06:11:39;;;;;;;13.80;2.40;;;;;;;;;;4945636;28;20027;-60
2021/03/21 06:14:13;;;;;;;33.03;3.70;;;;;;;;;;4945401;28;20498;-60
2021/03/21 06:17:02;;;;;;;29.90;3.43;;;;;;;;;;4947468;28;21807;-60
2021/03/21 06:19:51;;;;;;;34.58;3.67;;;;;;;;;;4946962;28;20045;-59
2021/03/21 06:22:22;;;;;;;35.72;3.08;;;;;;;;;;4947402;28;20061;-60
2021/03/21 06:24:50;;;;;;;33.00;3.30;;;;;;;;;;4948706;28;20069;-60
2021/03/21 06:27:39;;;;;;;40.50;3.45;;;;;;;;;;4943877;28;20993;-60
2021/03/21 06:30:07;;;;;;;33.92;3.40;;;;;;;;;;4946563;28;20090;-59
2021/03/21 06:32:45;;;;;;;37.67;3.35;;;;;;;;;;4947649;28;20141;-60
2021/03/21 06:35:32;;;;;;;39.35;3.78;;;;;;;;;;4949194;28;20073;-59
2021/03/21 06:38:16;;;;;;;27.92;3.70;;;;;;;;;;4949990;28;21945;-59
2021/03/21 06:40:44;;;;;;;25.15;3.35;;;;;;;;;;4946917;28;20031;-58
2021/03/21 06:43:29;;;;;;;36.53;3.13;;;;;;;;;;4947983;28;20078;-60
2021/03/21 06:45:55;;;;;;;37.38;3.65;;;;;;;;;;4944612;28;20228;-62
2021/03/21 06:48:42;;;;;;;36.20;3.00;;;;;;;;;;4940227;28;20066;-61
2021/03/21 06:51:20;;;;;;;25.42;4.03;;;;;;;;;;4944781;28;20121;-59
2021/03/21 06:54:00;;;;;;;47.42;4.90;;;;;;;;;;4943274;28;20035;-58
2021/03/21 06:56:34;;;;;;;31.42;3.15;;;;;;;;;;4943932;28;20123;-59
2021/03/21 06:59:19;;;;;;;23.90;3.65;;;;;;;;;;4944407;28;20038;-58
2021/03/21 07:02:11;;;;;;;41.10;4.88;;;;;;;;;;4943897;28;20138;-59
2021/03/21 07:04:57;;;;;;;53.15;4.00;;;;;;;;;;4929150;28;20572;-59
2021/03/21 07:07:28;;;;;;;36.28;3.30;;;;;;;;;;4931195;28;20041;-57
2021/03/21 07:10:22;;;;;;;36.50;2.92;;;;;;;;;;4931969;28;20125;-60
2021/03/21 07:13:17;;;;;;;29.20;3.80;;;;;;;;;;4920852;28;20121;-58
2021/03/21 07:15:51;;;;;;;40.60;5.25;;;;;;;;;;4912887;28;22257;-59
2021/03/21 07:18:23;;;;;;;33.65;3.58;;;;;;;;;;4947160;28;20026;-59
2021/03/21 07:21:06;;;;;;;33.17;4.13;;;;;;;;;;4945311;28;20110;-58
2021/03/21 07:23:35;;;;;;;33.78;3.95;;;;;;;;;;4946374;28;20482;-60
2021/03/21 07:26:26;;;;;;;37.15;4.13;;;;;;;;;;4943641;28;20030;-58
2021/03/21 07:28:51;;;;;;;42.28;4.45;;;;;;;;;;4948578;28;20052;-58
2021/03/21 07:31:29;;;;;;;41.30;4.38;;;;;;;;;;4944938;28;20428;-59
2021/03/21 07:34:00;;;;;;;38.88;4.25;;;;;;;;;;4946958;28;20046;-60
2021/03/21 07:36:44;;;;;;;36.55;3.35;;;;;;;;;;4946924;28;20042;-59
2021/03/21 07:39:28;;;;;;;28.27;4.10;;;;;;;;;;4947449;28;20121;-59
2021/03/21 07:41:59;;;;;;;25.35;4.60;;;;;;;;;;4945112;28;20101;-59
2021/03/21 07:44:39;;;;;;;45.95;5.57;;;;;;;;;;4946223;28;20164;-58
2021/03/21 07:47:23;;;;;;;27.25;4.32;;;;;;;;;;4946468;28;20069;-59
2021/03/21 07:50:08;;;;;;;38.15;5.90;;;;;;;;;;4940724;28;22030;-59
2021/03/21 07:52:52;;;;;;;35.75;4.35;;;;;;;;;;4926711;28;20205;-59
2021/03/21 07:55:21;;;;;;;38.22;5.18;;;;;;;;;;4947226;28;20170;-59
2021/03/21 07:57:53;;;;;;;30.40;4.10;;;;;;;;;;4925472;28;20037;-59
2021/03/21 08:00:19;;;;;;;31.27;4.88;;;;;;;;;;4944929;28;20416;-59
2021/03/21 08:02:47;;;;;;;30.85;4.18;;;;;;;;;;4929719;28;20027;-59
2021/03/21 08:05:18;;;;;;;41.75;5.00;;;;;;;;;;4945081;28;20387;-58
2021/03/21 08:07:48;;;;;;;49.50;5.18;;;;;;;;;;4947443;28;20031;-60
2021/03/21 08:10:21;;;;;;;38.33;5.22;;;;;;;;;;4921751;28;20035;-59
2021/03/21 08:12:52;;;;;;;27.92;4.72;;;;;;;;;;4945435;28;20131;-60
2021/03/21 08:15:21;;;;;;;38.15;4.45;;;;;;;;;;4945195;28;20121;-59
2021/03/21 08:18:07;;;;;;;32.85;4.18;;;;;;;;;;4930334;28;20035;-59
2021/03/21 08:20:38;;;;;;;38.75;4.50;;;;;;;;;;4945190;28;20023;-60
2021/03/21 08:23:25;;;;;;;36.50;4.15;;;;;;;;;;4945166;28;20023;-59
2021/03/21 08:25:51;;;;;;;37.40;4.72;;;;;;;;;;4943890;28;20062;-61
2021/03/21 08:28:18;;;;;;;36.20;5.32;;;;;;;;;;4944501;28;20121;-59
2021/03/21 08:30:46;;;;;;;45.15;4.25;;;;;;;;;;4946944;28;20031;-59
2021/03/21 08:33:12;;;;;;;27.35;3.50;;;;;;;;;;4927463;28;20628;-58
2021/03/21 08:35:40;;;;;;;31.95;3.95;;;;;;;;;;4943517;28;20058;-61
2021/03/21 08:38:22;;;;;;;37.55;3.83;;;;;;;;;;4931208;28;20431;-59
2021/03/21 08:41:00;;;;;;;28.08;4.10;;;;;;;;;;4926526;28;20882;-59
2021/03/21 08:43:35;;;;;;;27.55;3.42;;;;;;;;;;4942885;28;20035;-61
2021/03/21 08:46:00;;;;;;;26.73;3.90;;;;;;;;;;4943142;28;20039;-59
2021/03/21 08:48:31;;;;;;;33.65;4.35;;;;;;;;;;4945318;28;20720;-60
2021/03/21 08:51:07;;;;;;;35.95;4.38;;;;;;;;;;4945132;28;20073;-59
2021/03/21 08:53:36;;;;;;;26.42;4.45;;;;;;;;;;4942452;28;20165;-59
2021/03/21 08:56:13;;;;;;;49.17;4.97;;;;;;;;;;4944232;28;20026;-60
2021/03/21 08:58:39;;;;;;;23.98;4.30;;;;;;;;;;4937115;28;20949;-59
2021/03/21 09:01:11;;;;;;;34.78;4.95;;;;;;;;;;4924241;28;20035;-58
2021/03/21 09:03:39;;;;;;;31.35;4.13;;;;;;;;;;4945358;28;20050;-60
2021/03/21 09:06:11;;;;;;;39.40;5.05;;;;;;;;;;4928230;28;20033;-59
2021/03/21 09:08:39;;;;;;;26.70;4.38;;;;;;;;;;4925623;28;20466;-59
2021/03/21 09:11:06;;;;;;;36.30;4.85;;;;;;;;;;4945447;28;20031;-58
2021/03/21 09:13:33;;;;;;;40.67;4.88;;;;;;;;;;4929273;28;20031;-59
2021/03/21 09:15:58;;;;;;;34.03;5.50;;;;;;;;;;4928710;28;20038;-60
2021/03/21 09:18:32;;;;;;;32.45;3.97;;;;;;;;;;4947212;28;20073;-59
2021/03/21 09:21:00;;;;;;;36.25;3.53;;;;;;;;;;4925992;28;20764;-59
2021/03/21 09:23:30;;;;;;;31.30;4.50;;;;;;;;;;4924192;28;20030;-59
2021/03/21 09:25:57;;;;;;;32.45;4.78;;;;;;;;;;4932945;28;20137;-59
2021/03/21 09:28:24;;;;;;;28.13;4.32;;;;;;;;;;4929356;28;20057;-59
2021/03/21 09:30:49;;;;;;;36.03;4.53;;;;;;;;;;4949618;28;20174;-59
2021/03/21 09:33:27;;;;;;;36.92;3.97;;;;;;;;;;4950307;28;20774;-58
2021/03/21 09:35:58;;;;;;;33.05;4.65;;;;;;;;;;4949473;28;20716;-59
2021/03/21 09:38:32;;;;;;;38.78;4.68;;;;;;;;;;4930863;28;20047;-59
2021/03/21 09:40:59;;;;;;;32.28;3.83;;;;;;;;;;4944882;28;20085;-60
2021/03/21 09:43:27;;;;;;;35.00;3.95;;;;;;;;;;4932669;28;20113;-59
2021/03/21 09:46:06;;;;;;;36.17;5.78;;;;;;;;;;4931212;28;20458;-59
2021/03/21 09:48:34;;;;;;;46.85;4.72;;;;;;;;;;4948697;28;22004;-59
2021/03/21 09:51:06;;;;;;;24.15;4.45;;;;;;;;;;4947041;28;20022;-59
2021/03/21 09:53:39;;;;;;;32.45;4.35;;;;;;;;;;4929905;28;20034;-59
2021/03/21 09:56:15;;;;;;;26.40;4.05;;;;;;;;;;4950209;28;21962;-60
2021/03/21 09:58:41;;;;;;;39.70;3.90;;;;;;;;;;4947446;28;20027;-59
2021/03/21 10:01:11;;;;;;;34.63;4.45;;;;;;;;;;4948362;28;21516;-59
2021/03/21 10:03:43;;;;;;;35.30;4.45;;;;;;;;;;4948850;28;20491;-59
2021/03/21 10:06:29;;;;;;;33.10;4.75;;;;;;;;;;4947945;28;20035;-60
2021/03/21 10:09:08;;;;;;;35.58;4.30;;;;;;;;;;4933228;28;20198;-60
2021/03/21 10:11:52;;;;;;;29.50;3.75;;;;;;;;;;4948318;28;20034;-60
2021/03/21 10:14:27;;;;;;;28.25;4.10;;;;;;;;;;4930339;28;20054;-60
2021/03/21 10:16:53;;;;;;;28.52;4.35;;;;;;;;;;4945143;28;20089;-59
2021/03/21 10:19:37;;;;;;;29.38;3.65;;;;;;;;;;4949855;28;20033;-58
2021/03/21 10:22:25;;;;;;;25.13;3.88;;;;;;;;;;4949817;28;20035;-59
2021/03/21 10:24:52;;;;;;;26.92;4.53;;;;;;;;;;4947723;28;20156;-59
2021/03/21 10:27:19;;;;;;;38.45;4.72;;;;;;;;;;4948476;28;20039;-60
2021/03/21 10:30:05;;;;;;;38.78;3.80;;;;;;;;;;4929649;28;20038;-59
2021/03/21 10:32:31;;;;;;;38.90;5.22;;;;;;;;;;4949250;28;20114;-60
2021/03/21 10:34:59;;;;;;;34.00;4.43;;;;;;;;;;4931670;28;20403;-59
2021/03/21 10:37:37;;;;;;;27.92;3.83;;;;;;;;;;4949038;28;20152;-59
2021/03/21 10:40:06;;;;;;;26.70;4.18;;;;;;;;;;4947465;28;20050;-60
2021/03/21 10:42:39;;;;;;;30.58;4.35;;;;;;;;;;4927007;28;20027;-59
2021/03/21 10:45:06;;;;;;;33.80;3.95;;;;;;;;;;4946052;28;20137;-59
2021/03/21 10:47:33;;;;;;;29.88;4.45;;;;;;;;;;4927451;28;20054;-60
2021/03/21 10:50:00;;;;;;;41.25;4.53;;;;;;;;;;4933651;28;20046;-60
2021/03/21 10:52:39;;;;;;;37.15;4.78;;;;;;;;;;4925218;28;22079;-60
2021/03/21 10:55:10;;;;;;;30.90;4.00;;;;;;;;;;4945929;28;20169;-59
2021/03/21 10:57:42;;;;;;;25.63;4.32;;;;;;;;;;4943848;28;20121;-59
2021/03/21 11:00:08;;;;;;;35.10;4.70;;;;;;;;;;4942583;28;20986;-59
2021/03/21 11:02:36;;;;;;;23.67;3.97;;;;;;;;;;4945433;28;20027;-59
2021/03/21 11:05:07;;;;;;;36.22;4.40;;;;;;;;;;4927361;28;20899;-59
2021/03/21 11:07:32;;;;;;;35.08;5.43;;;;;;;;;;4947256;28;20070;-59
2021/03/21 11:10:08;;;;;;;35.42;4.22;;;;;;;;;;4948488;28;20744;-58
2021/03/21 11:12:38;;;;;;;40.83;4.47;;;;;;;;;;4926540;28;20101;-60
2021/03/21 11:15:19;;;;;;;37.08;4.53;;;;;;;;;;4947133;28;20026;-61
2021/03/21 11:17:50;;;;;;;28.65;4.70;;;;;;;;;;4927945;28;20069;-60
2021/03/21 11:20:21;;;;;;;34.95;4.57;;;;;;;;;;4945285;28;20395;-61
2021/03/21 11:22:46;;;;;;;31.88;4.18;;;;;;;;;;4926653;28;20042;-59
2021/03/21 11:25:13;;;;;;;34.75;4.43;;;;;;;;;;4912807;28;20077;-59
2021/03/21 11:27:39;;;;;;;34.50;4.25;;;;;;;;;;4941900;28;20050;-59
2021/03/21 11:30:08;;;;;;;26.75;4.78;;;;;;;;;;4943149;28;20027;-59
2021/03/21 11:32:36;;;;;;;20.33;3.92;;;;;;;;;;4929619;28;20122;-62
2021/03/21 11:35:07;;;;;;;31.65;5.07;;;;;;;;;;4943918;28;20039;-60
2021/03/21 11:37:35;;;;;;;25.27;3.78;;;;;;;;;;4944206;28;20272;-60
2021/03/21 11:40:03;;;;;;;35.08;4.90;;;;;;;;;;4947390;28;20022;-60
2021/03/21 11:42:39;;;;;;;30.70;4.72;;;;;;;;;;4943617;28;20114;-60
2021/03/21 11:45:16;;;;;;;38.05;4.25;;;;;;;;;;4930797;28;20045;-60
2021/03/21 11:47:46;;;;;;;24.05;3.67;;;;;;;;;;4913036;28;20120;-59
2021/03/21 11:50:22;;;;;;;22.98;3.90;;;;;;;;;;4944565;28;20031;-60
2021/03/21 11:52:48;;;;;;;20.48;3.90;;;;;;;;;;4925505;28;20041;-59
2021/03/21 11:55:18;;;;;;;29.58;4.05;;;;;;;;;;4945701;28;20027;-60
2021/03/21 11:57:55;;;;;;;24.10;3.53;;;;;;;;;;4929090;28;20041;-59
2021/03/21 12:00:24;;;;;;;24.65;3.90;;;;;;;;;;4946496;28;20035;-60
2021/03/21 12:02:56;;;;;;;20.67;3.05;;;;;;;;;;4926393;28;21065;-59
2021/03/21 12:05:24;;;;;;;22.63;3.20;;;;;;;;;;4931138;28;20066;-59
2021/03/21 12:07:50;;;;;;;30.10;3.78;;;;;;;;;;4948412;28;20069;-59
2021/03/21 12:10:30;;;;;;;32.45;3.70;;;;;;;;;;4944760;28;20043;-59
2021/03/21 12:12:55;;;;;;;30.63;4.43;;;;;;;;;;4927120;28;20035;-58
2021/03/21 12:15:26;;;;;;;28.48;3.63;;;;;;;;;;4945989;28;20046;-59
2021/03/21 12:18:01;;;;;;;31.83;4.13;;;;;;;;;;4930969;28;20023;-57
2021/03/21 12:20:33;;;;;;;30.80;4.85;;;;;;;;;;4944541;28;20031;-59
2021/03/21 12:23:02;;;;;;;21.08;4.20;;;;;;;;;;4947331;28;20026;-59
2021/03/21 12:25:30;;;;;;;18.65;3.67;;;;;;;;;;4945558;28;22033;-58
2021/03/21 12:28:14;;;;;;;36.60;4.75;;;;;;;;;;4945986;28;20571;-58
2021/03/21 12:30:41;;;;;;;25.23;3.90;;;;;;;;;;4943969;28;20031;-58
2021/03/21 12:33:13;;;;;;;23.75;4.22;;;;;;;;;;4946062;28;20125;-58
2021/03/21 12:35:41;;;;;;;24.77;3.75;;;;;;;;;;4947363;28;20443;-58
2021/03/21 12:38:10;;;;;;;23.70;3.70;;;;;;;;;;4946648;28;20122;-59
2021/03/21 12:40:45;;;;;;;23.25;3.88;;;;;;;;;;4948966;28;20031;-59
2021/03/21 12:43:17;;;;;;;29.60;3.60;;;;;;;;;;4924719;28;20037;-60
2021/03/21 12:45:58;;;;;;;24.58;3.65;;;;;;;;;;4945918;28;20034;-60
2021/03/21 12:48:24;;;;;;;22.38;3.70;;;;;;;;;;4945022;28;20070;-60
2021/03/21 12:50:51;;;;;;;27.95;3.95;;;;;;;;;;4928601;28;20030;-59
2021/03/21 12:53:22;;;;;;;24.45;3.58;;;;;;;;;;4947868;28;20066;-59
2021/03/21 12:55:48;;;;;;;25.25;4.18;;;;;;;;;;4930018;28;20099;-59
2021/03/21 12:58:13;;;;;;;28.30;4.25;;;;;;;;;;4950747;28;20035;-58
2021/03/21 13:00:40;;;;;;;17.05;2.42;;;;;;;;;;4949543;28;20030;-60
2021/03/21 13:03:06;;;;;;;30.17;3.55;;;;;;;;;;4948955;28;22080;-59
2021/03/21 13:05:39;;;;;;;25.15;3.88;;;;;;;;;;4933835;28;20053;-60
2021/03/21 13:08:07;;;;;;;33.63;3.42;;;;;;;;;;4950350;28;20094;-61
2021/03/21 13:10:37;;;;;;;31.48;4.15;;;;;;;;;;4948543;28;20041;-59
2021/03/21 13:13:05;;;;;;;30.40;3.60;;;;;;;;;;4932721;28;20034;-58
2021/03/21 13:15:36;;;;;;;26.30;3.65;;;;;;;;;;4930527;28;20026;-59
2021/03/21 13:18:05;;;;;;;31.52;3.50;;;;;;;;;;4950246;28;20612;-59
2021/03/21 13:20:35;;;;;;;30.83;3.50;;;;;;;;;;4949147;28;21999;-58
2021/03/21 13:23:03;;;;;;;24.83;3.88;;;;;;;;;;4929214;28;20034;-59
2021/03/21 13:25:32;;;;;;;18.35;3.97;;;;;;;;;;4948734;28;20144;-59
2021/03/21 13:28:02;;;;;;;18.90;3.40;;;;;;;;;;4949038;28;20048;-58
2021/03/21 13:30:33;;;;;;;27.45;3.78;;;;;;;;;;4916908;28;20031;-58
2021/03/21 13:33:01;;;;;;;28.00;4.00;;;;;;;;;;4948705;28;20038;-59
2021/03/21 13:35:30;;;;;;;26.63;3.50;;;;;;;;;;4915602;28;20494;-58
2021/03/21 13:37:56;;;;;;;22.77;3.13;;;;;;;;;;4949824;28;20035;-58
2021/03/21 13:40:33;;;;;;;30.63;3.60;;;;;;;;;;4942550;28;20039;-58
2021/03/21 13:43:01;;;;;;;23.95;3.40;;;;;;;;;;4927856;28;20057;-59
2021/03/21 13:45:31;;;;;;;27.45;3.63;;;;;;;;;;4947679;28;20015;-58
2021/03/21 13:47:59;;;;;;;35.45;4.32;;;;;;;;;;4950034;28;20049;-59
2021/03/21 13:50:28;;;;;;;26.02;3.45;;;;;;;;;;4931416;28;20042;-59
2021/03/21 13:52:56;;;;;;;23.73;3.80;;;;;;;;;;4930557;28;20027;-62
2021/03/21 13:55:32;;;;;;;26.63;3.55;;;;;;;;;;4926483;28;20034;-59
2021/03/21 13:57:58;;;;;;;37.25;4.13;;;;;;;;;;4942134;28;20154;-58
2021/03/21 14:00:24;;;;;;;23.05;3.30;;;;;;;;;;4948127;28;20030;-59
2021/03/21 14:02:50;;;;;;;21.08;3.33;;;;;;;;;;4946924;28;20034;-59
2021/03/21 14:05:18;;;;;;;22.98;3.78;;;;;;;;;;4946356;28;20038;-58
2021/03/21 14:07:44;;;;;;;26.00;3.17;;;;;;;;;;4947857;28;20031;-58
2021/03/21 14:10:10;;;;;;;22.02;3.20;;;;;;;;;;4947596;28;20097;-59
2021/03/21 14:12:36;;;;;;;22.83;3.05;;;;;;;;;;4948485;28;20043;-58
2021/03/21 14:15:05;;;;;;;21.40;2.90;;;;;;;;;;4945975;28;20057;-59
2021/03/21 14:17:30;;;;;;;28.20;3.47;;;;;;;;;;4928705;28;20097;-59
2021/03/21 14:19:56;;;;;;;24.85;3.85;;;;;;;;;;4933368;28;21401;-58
2021/03/21 14:22:24;;;;;;;32.75;4.90;;;;;;;;;;4947475;28;20067;-58
2021/03/21 14:24:52;;;;;;;27.42;4.32;;;;;;;;;;4932088;28;20100;-59
2021/03/21 14:27:20;;;;;;;29.75;4.40;;;;;;;;;;4946550;28;20045;-58
2021/03/21 14:29:48;;;;;;;28.02;4.25;;;;;;;;;;4931545;28;20041;-58
2021/03/21 14:32:16;;;;;;;32.70;4.22;;;;;;;;;;4931655;28;20034;-58
2021/03/21 14:34:41;;;;;;;35.58;3.70;;;;;;;;;;4946388;28;20046;-58
2021/03/21 14:37:07;;;;;;;37.38;3.92;;;;;;;;;;4914492;28;20997;-58
2021/03/21 14:39:32;;;;;;;25.00;4.15;;;;;;;;;;4930377;28;20125;-58
2021/03/21 14:41:58;;;;;;;27.00;3.35;;;;;;;;;;4948282;28;20027;-58
2021/03/21 14:44:24;;;;;;;22.55;3.42;;;;;;;;;;4949146;28;20061;-59
2021/03/21 14:46:49;;;;;;;26.42;2.95;;;;;;;;;;4926906;28;20066;-58
2021/03/21 14:49:17;;;;;;;20.63;3.55;;;;;;;;;;4948688;28;20035;-57
2021/03/21 14:51:42;;;;;;;22.40;3.30;;;;;;;;;;4947467;28;20054;-58
2021/03/21 14:54:08;;;;;;;23.70;2.78;;;;;;;;;;4929270;28;20031;-57
2021/03/21 14:56:33;;;;;;;29.80;3.78;;;;;;;;;;4929672;28;20113;-58
2021/03/21 14:59:03;;;;;;;24.20;3.35;;;;;;;;;;4945421;28;20042;-58